createdAt,value
2018-10-06T00:00:34.040Z,23.01
2018-10-06T00:01:34.056Z,23.01
2018-10-06T00:02:34.081Z,23.06
2018-10-06T00:03:34.105Z,23.06
2018-10-06T00:04:34.128Z,23.01
2018-10-06T00:05:34.155Z,23.09
2018-10-06T00:06:34.178Z,22.94
2018-10-06T00:07:34.203Z,23.06
2018-10-06T00:08:34.225Z,23.03
2018-10-06T00:09:34.252Z,22.97
2018-10-06T00:10:34.272Z,23.03
2018-10-06T00:11:34.300Z,23.07
2018-10-06T00:12:34.320Z,23.09
2018-10-06T00:13:34.346Z,23.04
2018-10-06T00:14:34.370Z,23.01
2018-10-06T00:15:34.395Z,23.03
2018-10-06T00:16:34.416Z,23.06
2018-10-06T00:17:34.442Z,23.00
2018-10-06T00:18:34.470Z,23.00
2018-10-06T00:19:34.518Z,23.01
2018-10-06T00:20:34.515Z,22.99
2018-10-06T00:21:34.535Z,23.06
2018-10-06T00:22:34.562Z,23.04
2018-10-06T00:23:34.585Z,23.03
2018-10-06T00:24:34.608Z,23.00
2018-10-06T00:25:34.634Z,23.00
2018-10-06T00:26:34.657Z,23.01
2018-10-06T00:27:34.681Z,23.04
2018-10-06T00:28:34.705Z,23.03
2018-10-06T00:29:34.731Z,23.09
2018-10-06T00:30:34.752Z,23.03
2018-10-06T00:31:34.776Z,23.00
2018-10-06T00:32:34.803Z,22.97
2018-10-06T00:33:34.825Z,23.01
2018-10-06T00:34:34.849Z,22.99
2018-10-06T00:35:34.876Z,23.00
2018-10-06T00:36:34.897Z,23.01
2018-10-06T00:37:34.921Z,23.06
2018-10-06T00:38:34.947Z,22.99
2018-10-06T00:39:34.969Z,22.97
2018-10-06T00:40:34.992Z,22.97
2018-10-06T00:41:35.015Z,23.00
2018-10-06T00:42:35.040Z,22.99
2018-10-06T00:43:35.064Z,22.94
2018-10-06T00:44:35.092Z,22.97
2018-10-06T00:45:35.110Z,23.01
2018-10-06T00:46:35.135Z,22.94
2018-10-06T00:47:35.212Z,23.07
2018-10-06T00:48:35.183Z,22.99
2018-10-06T00:49:35.209Z,23.04
2018-10-06T00:50:35.235Z,23.07
2018-10-06T00:51:35.256Z,23.00
2018-10-06T00:52:35.281Z,23.03
2018-10-06T00:53:35.308Z,22.96
2018-10-06T00:54:35.326Z,23.01
2018-10-06T00:55:35.352Z,22.93
2018-10-06T00:56:35.376Z,23.03
2018-10-06T00:57:35.398Z,23.00
2018-10-06T00:58:35.422Z,23.00
2018-10-06T00:59:35.457Z,22.97
2018-10-06T01:00:35.469Z,23.00
2018-10-06T01:01:35.498Z,22.96
2018-10-06T01:02:35.519Z,23.01
2018-10-06T01:03:35.544Z,22.97
2018-10-06T01:04:35.593Z,22.99
2018-10-06T01:05:35.594Z,23.00
2018-10-06T01:06:35.614Z,22.97
2018-10-06T01:07:35.638Z,22.99
2018-10-06T01:08:35.665Z,22.99
2018-10-06T01:09:35.686Z,23.00
2018-10-06T01:10:35.749Z,23.01
2018-10-06T01:11:35.735Z,23.07
2018-10-06T01:12:35.761Z,23.01
2018-10-06T01:13:35.782Z,23.01
2018-10-06T01:14:35.806Z,22.99
2018-10-06T01:15:35.833Z,22.93
2018-10-06T01:16:35.855Z,23.00
2018-10-06T01:17:35.876Z,22.96
2018-10-06T01:18:35.901Z,23.03
2018-10-06T01:19:35.926Z,23.03
2018-10-06T01:20:35.948Z,22.99
2018-10-06T01:21:36.024Z,22.97
2018-10-06T01:22:35.999Z,22.94
2018-10-06T01:23:36.023Z,22.97
2018-10-06T01:24:36.045Z,23.01
2018-10-06T01:25:36.068Z,22.94
2018-10-06T01:26:36.092Z,22.99
2018-10-06T01:27:36.118Z,23.01
2018-10-06T01:28:36.143Z,22.96
2018-10-06T01:29:36.166Z,22.97
2018-10-06T01:30:36.187Z,22.97
2018-10-06T01:31:36.214Z,23.07
2018-10-06T01:32:36.238Z,23.03
2018-10-06T01:33:36.260Z,22.99
2018-10-06T01:34:36.290Z,23.01
2018-10-06T01:35:36.308Z,22.99
2018-10-06T01:36:36.332Z,22.99
2018-10-06T01:37:36.355Z,22.97
2018-10-06T01:38:36.381Z,22.99
2018-10-06T01:39:36.404Z,22.99
2018-10-06T01:40:36.426Z,22.97
2018-10-06T01:41:36.452Z,23.00
2018-10-06T01:42:36.474Z,23.01
2018-10-06T01:43:36.505Z,23.00
2018-10-06T01:44:36.523Z,22.93
2018-10-06T01:45:36.547Z,22.97
2018-10-06T01:46:36.571Z,23.00
2018-10-06T01:47:36.597Z,23.03
2018-10-06T01:48:36.620Z,23.00
2018-10-06T01:49:36.645Z,23.01
2018-10-06T01:50:36.667Z,22.97
2018-10-06T01:51:36.692Z,23.00
2018-10-06T01:52:36.722Z,22.97
2018-10-06T01:53:36.739Z,23.03
2018-10-06T01:54:36.763Z,23.00
2018-10-06T01:55:36.788Z,22.97
2018-10-06T01:56:36.812Z,22.97
2018-10-06T01:57:36.836Z,22.97
2018-10-06T01:58:36.859Z,22.93
2018-10-06T01:59:36.882Z,22.99
2018-10-06T02:00:36.905Z,22.93
2018-10-06T02:01:36.932Z,23.00
2018-10-06T02:02:36.953Z,22.99
2018-10-06T02:03:36.977Z,23.00
2018-10-06T02:04:37.008Z,23.01
2018-10-06T02:05:37.027Z,23.00
2018-10-06T02:06:37.048Z,22.94
2018-10-06T02:07:37.074Z,23.00
2018-10-06T02:08:37.096Z,22.96
2018-10-06T02:09:37.119Z,22.97
2018-10-06T02:10:37.150Z,23.00
2018-10-06T02:11:37.169Z,22.94
2018-10-06T02:12:37.192Z,22.99
2018-10-06T02:13:37.223Z,23.00
2018-10-06T02:14:37.240Z,22.97
2018-10-06T02:15:37.266Z,23.01
2018-10-06T02:16:37.290Z,22.93
2018-10-06T02:17:37.312Z,23.04
2018-10-06T02:18:37.335Z,23.00
2018-10-06T02:19:37.365Z,22.94
2018-10-06T02:20:37.385Z,22.99
2018-10-06T02:21:37.406Z,22.99
2018-10-06T02:22:37.433Z,22.96
2018-10-06T02:23:37.453Z,22.94
2018-10-06T02:24:37.478Z,22.94
2018-10-06T02:25:37.506Z,22.97
2018-10-06T02:26:37.528Z,22.96
2018-10-06T02:27:37.550Z,22.99
2018-10-06T02:28:37.577Z,22.93
2018-10-06T02:29:37.598Z,22.93
2018-10-06T02:30:37.622Z,23.01
2018-10-06T02:31:37.647Z,22.97
2018-10-06T02:32:37.669Z,22.93
2018-10-06T02:33:37.696Z,23.01
2018-10-06T02:34:37.720Z,22.93
2018-10-06T02:35:37.746Z,22.93
2018-10-06T02:36:37.777Z,22.99
2018-10-06T02:37:37.790Z,22.97
2018-10-06T02:38:37.817Z,22.96
2018-10-06T02:39:37.839Z,22.96
2018-10-06T02:40:37.863Z,22.91
2018-10-06T02:41:37.886Z,22.94
2018-10-06T02:42:37.910Z,22.97
2018-10-06T02:43:37.934Z,22.96
2018-10-06T02:44:37.956Z,22.94
2018-10-06T02:45:37.980Z,22.93
2018-10-06T02:46:38.007Z,22.91
2018-10-06T02:47:38.029Z,22.94
2018-10-06T02:48:38.054Z,22.96
2018-10-06T02:49:38.079Z,22.96
2018-10-06T02:50:38.100Z,22.94
2018-10-06T02:51:38.125Z,22.97
2018-10-06T02:52:38.152Z,23.03
2018-10-06T02:53:38.173Z,22.97
2018-10-06T02:54:38.196Z,22.97
2018-10-06T02:55:38.221Z,22.93
2018-10-06T02:56:38.242Z,22.96
2018-10-06T02:57:38.267Z,22.93
2018-10-06T02:58:38.292Z,23.04
2018-10-06T02:59:38.316Z,22.97
2018-10-06T03:00:38.340Z,22.99
2018-10-06T03:01:38.363Z,22.89
2018-10-06T03:02:38.387Z,22.94
2018-10-06T03:03:38.412Z,22.93
2018-10-06T03:04:38.436Z,22.91
2018-10-06T03:05:38.457Z,22.93
2018-10-06T03:06:38.482Z,22.94
2018-10-06T03:07:38.510Z,22.94
2018-10-06T03:08:38.529Z,22.93
2018-10-06T03:09:38.551Z,22.93
2018-10-06T03:10:38.579Z,23.01
2018-10-06T03:11:38.602Z,22.94
2018-10-06T03:12:38.626Z,22.89
2018-10-06T03:13:38.650Z,22.93
2018-10-06T03:14:38.672Z,22.91
2018-10-06T03:15:38.701Z,22.97
2018-10-06T03:16:38.722Z,22.89
2018-10-06T03:17:38.750Z,22.97
2018-10-06T03:18:38.769Z,22.94
2018-10-06T03:19:38.793Z,22.91
2018-10-06T03:20:38.814Z,22.94
2018-10-06T03:21:38.839Z,22.94
2018-10-06T03:22:38.865Z,22.94
2018-10-06T03:23:38.889Z,22.93
2018-10-06T03:24:38.909Z,22.97
2018-10-06T03:25:38.935Z,22.88
2018-10-06T03:26:38.960Z,22.94
2018-10-06T03:27:38.984Z,22.94
2018-10-06T03:28:39.005Z,22.99
2018-10-06T03:29:39.030Z,23.00
2018-10-06T03:30:39.057Z,22.88
2018-10-06T03:31:39.079Z,22.94
2018-10-06T03:32:39.102Z,22.94
2018-10-06T03:33:39.129Z,22.99
2018-10-06T03:34:39.152Z,22.89
2018-10-06T03:35:39.179Z,22.88
2018-10-06T03:36:39.196Z,22.94
2018-10-06T03:37:39.223Z,22.93
2018-10-06T03:38:39.249Z,22.88
2018-10-06T03:39:39.269Z,22.89
2018-10-06T03:40:39.295Z,22.99
2018-10-06T03:41:39.315Z,22.93
2018-10-06T03:42:39.338Z,22.91
2018-10-06T03:43:39.368Z,22.96
2018-10-06T03:44:39.388Z,22.94
2018-10-06T03:45:39.410Z,22.91
2018-10-06T03:46:39.437Z,22.94
2018-10-06T03:47:39.459Z,22.88
2018-10-06T03:48:39.484Z,22.97
2018-10-06T03:49:39.510Z,22.91
2018-10-06T03:50:39.529Z,22.96
2018-10-06T03:51:39.561Z,22.96
2018-10-06T03:52:39.581Z,22.89
2018-10-06T03:53:39.603Z,22.91
2018-10-06T03:54:39.631Z,22.97
2018-10-06T03:55:39.660Z,22.94
2018-10-06T03:56:39.674Z,22.89
2018-10-06T03:57:39.697Z,22.89
2018-10-06T03:58:39.726Z,22.89
2018-10-06T03:59:39.748Z,22.99
2018-10-06T04:00:39.769Z,22.96
2018-10-06T04:01:39.795Z,22.93
2018-10-06T04:02:39.818Z,22.89
2018-10-06T04:03:39.840Z,22.99
2018-10-06T04:04:39.865Z,22.97
2018-10-06T04:05:39.889Z,22.96
2018-10-06T04:06:39.912Z,22.96
2018-10-06T04:07:39.937Z,22.97
2018-10-06T04:08:39.960Z,22.97
2018-10-06T04:09:39.982Z,22.99
2018-10-06T04:10:40.008Z,22.93
2018-10-06T04:11:40.032Z,22.86
2018-10-06T04:12:40.059Z,22.94
2018-10-06T04:13:40.080Z,22.94
2018-10-06T04:14:40.106Z,22.93
2018-10-06T04:15:40.127Z,22.96
2018-10-06T04:16:40.150Z,22.99
2018-10-06T04:17:40.174Z,22.97
2018-10-06T04:18:40.198Z,22.94
2018-10-06T04:19:40.231Z,22.88
2018-10-06T04:20:40.245Z,22.94
2018-10-06T04:21:40.274Z,22.89
2018-10-06T04:22:40.294Z,22.96
2018-10-06T04:23:40.318Z,22.94
2018-10-06T04:24:40.341Z,22.94
2018-10-06T04:25:40.365Z,22.91
2018-10-06T04:26:40.392Z,22.89
2018-10-06T04:27:40.415Z,22.93
2018-10-06T04:28:40.449Z,22.96
2018-10-06T04:29:40.459Z,22.88
2018-10-06T04:30:40.485Z,22.93
2018-10-06T04:31:40.511Z,22.94
2018-10-06T04:32:40.533Z,22.94
2018-10-06T04:33:40.555Z,22.93
2018-10-06T04:34:40.580Z,22.97
2018-10-06T04:35:40.605Z,22.86
2018-10-06T04:36:40.627Z,22.88
2018-10-06T04:37:40.651Z,22.94
2018-10-06T04:38:40.675Z,22.93
2018-10-06T04:39:40.699Z,22.85
2018-10-06T04:40:40.722Z,22.94
2018-10-06T04:41:40.745Z,22.89
2018-10-06T04:42:40.771Z,22.89
2018-10-06T04:43:40.796Z,22.93
2018-10-06T04:44:40.817Z,22.88
2018-10-06T04:45:40.842Z,22.93
2018-10-06T04:46:40.865Z,22.89
2018-10-06T04:47:40.889Z,22.86
2018-10-06T04:48:40.913Z,22.86
2018-10-06T04:49:40.937Z,22.91
2018-10-06T04:50:40.962Z,22.94
2018-10-06T04:51:40.984Z,22.99
2018-10-06T04:52:41.015Z,22.96
2018-10-06T04:53:41.034Z,22.86
2018-10-06T04:54:41.058Z,22.99
2018-10-06T04:55:41.084Z,22.91
2018-10-06T04:56:41.102Z,22.97
2018-10-06T04:57:41.128Z,22.91
2018-10-06T04:58:41.152Z,22.91
2018-10-06T04:59:41.178Z,22.99
2018-10-06T05:00:41.204Z,22.94
2018-10-06T05:01:41.223Z,22.91
2018-10-06T05:02:41.247Z,22.97
2018-10-06T05:03:41.273Z,22.93
2018-10-06T05:04:41.294Z,22.93
2018-10-06T05:05:41.316Z,23.03
2018-10-06T05:06:41.343Z,22.96
2018-10-06T05:07:41.374Z,22.88
2018-10-06T05:08:41.391Z,22.91
2018-10-06T05:09:41.413Z,22.93
2018-10-06T05:10:41.438Z,22.93
2018-10-06T05:11:41.461Z,22.97
2018-10-06T05:12:41.485Z,22.93
2018-10-06T05:13:41.511Z,22.94
2018-10-06T05:14:41.533Z,22.99
2018-10-06T05:15:41.560Z,22.96
2018-10-06T05:16:41.583Z,23.01
2018-10-06T05:17:41.603Z,23.01
2018-10-06T05:18:41.628Z,23.00
2018-10-06T05:19:41.653Z,22.96
2018-10-06T05:20:41.676Z,23.00
2018-10-06T05:21:41.702Z,22.99
2018-10-06T05:22:41.724Z,22.99
2018-10-06T05:23:41.761Z,22.97
2018-10-06T05:24:41.771Z,23.00
2018-10-06T05:25:41.795Z,22.94
2018-10-06T05:26:41.820Z,22.99
2018-10-06T05:27:41.843Z,22.97
2018-10-06T05:28:41.867Z,22.96
2018-10-06T05:29:41.889Z,22.99
2018-10-06T05:30:41.914Z,23.00
2018-10-06T05:31:41.939Z,23.00
2018-10-06T05:32:41.961Z,23.00
2018-10-06T05:33:41.988Z,22.99
2018-10-06T05:34:42.013Z,23.00
2018-10-06T05:35:42.032Z,22.97
2018-10-06T05:36:42.060Z,22.93
2018-10-06T05:37:42.084Z,22.91
2018-10-06T05:38:42.106Z,23.06
2018-10-06T05:39:42.130Z,23.04
2018-10-06T05:40:42.153Z,23.09
2018-10-06T05:41:42.176Z,23.04
2018-10-06T05:42:42.201Z,23.06
2018-10-06T05:43:42.228Z,23.03
2018-10-06T05:44:42.247Z,23.03
2018-10-06T05:45:42.272Z,23.06
2018-10-06T05:46:42.300Z,23.07
2018-10-06T05:47:42.320Z,23.16
2018-10-06T05:48:42.343Z,23.19
2018-10-06T05:49:42.366Z,23.14
2018-10-06T05:50:42.393Z,23.15
2018-10-06T05:51:42.431Z,23.14
2018-10-06T05:52:42.439Z,23.16
2018-10-06T05:53:42.461Z,23.16
2018-10-06T05:54:42.488Z,23.16
2018-10-06T05:55:42.514Z,23.19
2018-10-06T05:56:42.535Z,23.22
2018-10-06T05:57:42.558Z,23.25
2018-10-06T05:58:42.583Z,23.25
2018-10-06T05:59:42.615Z,23.31
2018-10-06T06:00:42.629Z,23.31
2018-10-06T06:01:42.653Z,23.35
2018-10-06T06:02:42.676Z,23.23
2018-10-06T06:03:42.702Z,23.31
2018-10-06T06:04:42.726Z,23.39
2018-10-06T06:05:42.752Z,23.38
2018-10-06T06:06:42.773Z,23.42
2018-10-06T06:07:42.799Z,23.41
2018-10-06T06:08:42.821Z,23.45
2018-10-06T06:09:42.911Z,23.50
2018-10-06T06:10:42.868Z,23.42
2018-10-06T06:11:42.894Z,23.52
2018-10-06T06:12:42.919Z,23.57
2018-10-06T06:13:42.941Z,23.59
2018-10-06T06:14:42.965Z,23.62
2018-10-06T06:15:43.080Z,23.62
2018-10-06T06:16:43.013Z,23.56
2018-10-06T06:17:43.037Z,23.63
2018-10-06T06:18:43.061Z,23.67
2018-10-06T06:19:43.086Z,23.59
2018-10-06T06:20:43.109Z,23.67
2018-10-06T06:21:43.134Z,23.64
2018-10-06T06:22:43.158Z,23.62
2018-10-06T06:23:43.203Z,23.71
2018-10-06T06:24:43.205Z,23.69
2018-10-06T06:25:43.229Z,23.74
2018-10-06T06:26:43.254Z,23.75
2018-10-06T06:27:43.280Z,23.81
2018-10-06T06:28:43.301Z,23.77
2018-10-06T06:29:43.328Z,23.74
2018-10-06T06:30:43.370Z,23.78
2018-10-06T06:31:43.374Z,23.82
2018-10-06T06:32:43.399Z,23.82
2018-10-06T06:33:43.422Z,23.87
2018-10-06T06:34:43.449Z,23.86
2018-10-06T06:35:43.473Z,23.81
2018-10-06T06:36:43.496Z,23.86
2018-10-06T06:37:43.520Z,23.92
2018-10-06T06:38:43.545Z,23.94
2018-10-06T06:39:43.570Z,23.97
2018-10-06T06:40:43.620Z,23.96
2018-10-06T06:41:43.616Z,23.99
2018-10-06T06:42:43.641Z,23.97
2018-10-06T06:43:43.747Z,24.05
2018-10-06T06:44:43.690Z,24.12
2018-10-06T06:45:43.714Z,24.79
2018-10-06T06:46:43.738Z,25.34
2018-10-06T06:47:43.763Z,25.63
2018-10-06T06:48:43.791Z,25.48
2018-10-06T06:49:43.811Z,25.17
2018-10-06T06:50:43.836Z,24.99
2018-10-06T06:51:43.860Z,24.98
2018-10-06T06:52:43.888Z,24.83
2018-10-06T06:53:43.910Z,24.87
2018-10-06T06:54:43.936Z,24.74
2018-10-06T06:55:43.960Z,24.71
2018-10-06T06:56:43.984Z,24.74
2018-10-06T06:57:44.010Z,24.71
2018-10-06T06:58:44.032Z,24.80
2018-10-06T06:59:44.058Z,24.64
2018-10-06T07:00:44.085Z,24.67
2018-10-06T07:01:44.107Z,24.68
2018-10-06T07:02:44.145Z,24.67
2018-10-06T07:03:44.159Z,24.74
2018-10-06T07:04:44.183Z,24.67
2018-10-06T07:05:44.259Z,24.67
2018-10-06T07:06:44.232Z,24.59
2018-10-06T07:07:44.256Z,24.63
2018-10-06T07:08:44.285Z,24.66
2018-10-06T07:09:44.307Z,24.59
2018-10-06T07:10:44.331Z,24.53
2018-10-06T07:11:44.359Z,24.56
2018-10-06T07:12:44.439Z,24.56
2018-10-06T07:13:44.406Z,24.56
2018-10-06T07:14:44.435Z,24.56
2018-10-06T07:15:44.456Z,24.66
2018-10-06T07:16:44.480Z,24.56
2018-10-06T07:17:44.507Z,24.56
2018-10-06T07:18:44.531Z,24.56
2018-10-06T07:19:44.555Z,24.59
2018-10-06T07:20:44.580Z,24.53
2018-10-06T07:21:44.608Z,24.59
2018-10-06T07:22:44.629Z,24.56
2018-10-06T07:23:44.656Z,24.55
2018-10-06T07:24:44.678Z,24.59
2018-10-06T07:25:44.703Z,24.52
2018-10-06T07:26:44.729Z,24.44
2018-10-06T07:27:44.753Z,24.44
2018-10-06T07:28:44.777Z,24.48
2018-10-06T07:29:44.801Z,24.46
2018-10-06T07:30:44.829Z,24.44
2018-10-06T07:31:44.856Z,24.44
2018-10-06T07:32:44.875Z,24.52
2018-10-06T07:33:44.901Z,24.41
2018-10-06T07:34:44.925Z,24.51
2018-10-06T07:35:44.953Z,24.52
2018-10-06T07:36:44.977Z,24.49
2018-10-06T07:37:45.003Z,24.49
2018-10-06T07:38:45.028Z,24.41
2018-10-06T07:39:45.051Z,24.45
2018-10-06T07:40:45.084Z,24.48
2018-10-06T07:41:45.101Z,24.46
2018-10-06T07:42:45.125Z,24.52
2018-10-06T07:43:45.150Z,24.45
2018-10-06T07:44:45.189Z,24.48
2018-10-06T07:45:45.201Z,24.44
2018-10-06T07:46:45.223Z,24.45
2018-10-06T07:47:45.250Z,24.52
2018-10-06T07:48:45.273Z,24.41
2018-10-06T07:49:45.298Z,24.44
2018-10-06T07:50:45.324Z,24.39
2018-10-06T07:51:45.348Z,24.42
2018-10-06T07:52:45.373Z,24.46
2018-10-06T07:53:45.401Z,24.55
2018-10-06T07:54:45.422Z,24.39
2018-10-06T07:55:45.448Z,24.52
2018-10-06T07:56:45.496Z,24.46
2018-10-06T07:57:45.497Z,24.42
2018-10-06T07:58:45.524Z,24.42
2018-10-06T07:59:45.546Z,24.45
2018-10-06T08:00:45.571Z,24.45
2018-10-06T08:01:45.595Z,24.44
2018-10-06T08:02:45.621Z,24.45
2018-10-06T08:03:45.644Z,24.49
2018-10-06T08:04:45.669Z,24.51
2018-10-06T08:05:45.694Z,24.46
2018-10-06T08:06:45.722Z,24.48
2018-10-06T08:07:45.747Z,24.44
2018-10-06T08:08:45.767Z,24.42
2018-10-06T08:09:45.794Z,24.46
2018-10-06T08:10:45.820Z,24.52
2018-10-06T08:11:45.843Z,24.42
2018-10-06T08:12:45.867Z,24.52
2018-10-06T08:13:45.894Z,24.52
2018-10-06T08:14:45.917Z,24.52
2018-10-06T08:15:45.943Z,24.48
2018-10-06T08:16:45.968Z,24.53
2018-10-06T08:17:45.994Z,24.59
2018-10-06T08:18:46.018Z,24.52
2018-10-06T08:19:46.045Z,24.53
2018-10-06T08:20:46.066Z,24.51
2018-10-06T08:21:46.090Z,24.52
2018-10-06T08:22:46.117Z,24.63
2018-10-06T08:23:46.142Z,24.52
2018-10-06T08:24:46.167Z,24.52
2018-10-06T08:25:46.190Z,24.49
2018-10-06T08:26:46.215Z,24.56
2018-10-06T08:27:46.239Z,24.52
2018-10-06T08:28:46.268Z,24.55
2018-10-06T08:29:46.293Z,24.61
2018-10-06T08:30:46.313Z,24.55
2018-10-06T08:31:46.339Z,24.53
2018-10-06T08:32:46.363Z,24.60
2018-10-06T08:33:46.388Z,24.60
2018-10-06T08:34:46.415Z,24.56
2018-10-06T08:35:46.439Z,24.61
2018-10-06T08:36:46.465Z,24.56
2018-10-06T08:37:46.490Z,24.53
2018-10-06T08:38:46.513Z,24.53
2018-10-06T08:39:46.537Z,24.60
2018-10-06T08:40:46.563Z,24.56
2018-10-06T08:41:46.589Z,24.59
2018-10-06T08:42:46.626Z,24.53
2018-10-06T08:43:46.641Z,24.55
2018-10-06T08:44:46.662Z,24.56
2018-10-06T08:45:46.691Z,24.63
2018-10-06T08:46:46.711Z,24.53
2018-10-06T08:47:46.739Z,24.56
2018-10-06T08:48:46.762Z,24.63
2018-10-06T08:49:46.865Z,24.61
2018-10-06T08:50:46.811Z,24.53
2018-10-06T08:51:46.838Z,24.55
2018-10-06T08:52:46.862Z,24.60
2018-10-06T08:53:46.886Z,24.56
2018-10-06T08:54:46.911Z,24.61
2018-10-06T08:55:46.969Z,24.59
2018-10-06T08:56:46.958Z,24.59
2018-10-06T08:57:46.985Z,24.59
2018-10-06T08:58:47.012Z,24.59
2018-10-06T08:59:47.039Z,24.56
2018-10-06T09:00:47.062Z,24.61
2018-10-06T09:01:47.087Z,24.55
2018-10-06T09:02:47.109Z,24.53
2018-10-06T09:03:47.134Z,24.55
2018-10-06T09:04:47.159Z,24.60
2018-10-06T09:05:47.185Z,24.64
2018-10-06T09:06:47.209Z,24.60
2018-10-06T09:07:47.233Z,24.53
2018-10-06T09:08:47.263Z,24.60
2018-10-06T09:09:47.285Z,24.60
2018-10-06T09:10:47.366Z,24.53
2018-10-06T09:11:47.333Z,24.55
2018-10-06T09:12:47.357Z,24.66
2018-10-06T09:13:47.382Z,24.64
2018-10-06T09:14:47.408Z,24.68
2018-10-06T09:15:47.435Z,24.66
2018-10-06T09:16:47.457Z,24.67
2018-10-06T09:17:47.546Z,24.71
2018-10-06T09:18:47.513Z,24.70
2018-10-06T09:19:47.536Z,24.71
2018-10-06T09:20:47.557Z,24.70
2018-10-06T09:21:47.583Z,24.71
2018-10-06T09:22:47.608Z,24.71
2018-10-06T09:23:47.633Z,24.70
2018-10-06T09:24:47.655Z,24.68
2018-10-06T09:25:47.686Z,24.74
2018-10-06T09:26:47.706Z,24.71
2018-10-06T09:27:47.732Z,24.71
2018-10-06T09:28:47.756Z,24.74
2018-10-06T09:29:47.784Z,24.75
2018-10-06T09:30:47.814Z,24.71
2018-10-06T09:31:47.831Z,24.74
2018-10-06T09:32:47.855Z,24.71
2018-10-06T09:33:47.883Z,24.68
2018-10-06T09:34:47.914Z,24.64
2018-10-06T09:35:47.936Z,24.71
2018-10-06T09:36:47.955Z,24.70
2018-10-06T09:37:47.982Z,24.68
2018-10-06T09:38:48.005Z,24.67
2018-10-06T09:39:48.030Z,24.74
2018-10-06T09:40:48.058Z,24.74
2018-10-06T09:41:48.088Z,24.74
2018-10-06T09:42:48.243Z,24.71
2018-10-06T09:43:48.130Z,24.71
2018-10-06T09:44:48.155Z,24.74
2018-10-06T09:45:48.180Z,24.75
2018-10-06T09:46:48.205Z,24.75
2018-10-06T09:47:48.231Z,24.71
2018-10-06T09:48:48.255Z,24.68
2018-10-06T09:49:48.279Z,24.74
2018-10-06T09:50:48.308Z,24.74
2018-10-06T09:51:48.331Z,24.83
2018-10-06T09:52:48.354Z,24.75
2018-10-06T09:53:48.469Z,24.79
2018-10-06T09:54:48.405Z,24.80
2018-10-06T09:55:48.430Z,24.75
2018-10-06T09:56:48.462Z,24.86
2018-10-06T09:57:48.479Z,24.82
2018-10-06T09:58:48.504Z,24.80
2018-10-06T09:59:48.530Z,24.77
2018-10-06T10:00:48.554Z,24.74
2018-10-06T10:01:48.580Z,24.68
2018-10-06T10:02:48.607Z,24.79
2018-10-06T10:03:48.629Z,24.71
2018-10-06T10:04:48.658Z,24.86
2018-10-06T10:05:48.713Z,24.68
2018-10-06T10:06:48.706Z,24.70
2018-10-06T10:07:48.731Z,24.68
2018-10-06T10:08:48.754Z,24.74
2018-10-06T10:09:48.838Z,24.77
2018-10-06T10:10:48.807Z,24.83
2018-10-06T10:11:48.830Z,24.89
2018-10-06T10:12:48.900Z,24.83
2018-10-06T10:13:48.884Z,24.67
2018-10-06T10:14:48.905Z,24.77
2018-10-06T10:15:48.931Z,24.86
2018-10-06T10:16:48.971Z,24.75
2018-10-06T10:17:49.035Z,24.77
2018-10-06T10:18:49.004Z,24.82
2018-10-06T10:19:49.030Z,24.75
2018-10-06T10:20:49.055Z,24.83
2018-10-06T10:21:49.186Z,24.83
2018-10-06T10:22:49.142Z,24.80
2018-10-06T10:23:49.264Z,24.70
2018-10-06T10:24:49.155Z,24.82
2018-10-06T10:25:49.181Z,24.79
2018-10-06T10:26:49.205Z,24.83
2018-10-06T10:27:49.232Z,24.90
2018-10-06T10:28:49.343Z,24.80
2018-10-06T10:29:49.280Z,24.82
2018-10-06T10:30:49.306Z,24.80
2018-10-06T10:31:49.332Z,24.89
2018-10-06T10:32:49.355Z,24.89
2018-10-06T10:33:49.382Z,24.87
2018-10-06T10:34:49.405Z,24.80
2018-10-06T10:35:49.430Z,24.68
2018-10-06T10:36:49.458Z,24.89
2018-10-06T10:37:49.480Z,24.82
2018-10-06T10:38:49.507Z,24.80
2018-10-06T10:39:49.642Z,24.86
2018-10-06T10:40:49.556Z,24.89
2018-10-06T10:41:49.590Z,24.80
2018-10-06T10:42:49.609Z,24.77
2018-10-06T10:43:49.663Z,24.77
2018-10-06T10:44:49.656Z,24.80
2018-10-06T10:45:49.681Z,24.86
2018-10-06T10:46:49.708Z,24.86
2018-10-06T10:47:49.730Z,24.87
2018-10-06T10:48:49.761Z,24.82
2018-10-06T10:49:49.779Z,24.83
2018-10-06T10:50:49.876Z,24.89
2018-10-06T10:51:49.832Z,24.86
2018-10-06T10:52:49.856Z,24.89
2018-10-06T10:53:49.880Z,24.83
2018-10-06T10:54:49.906Z,24.80
2018-10-06T10:55:49.933Z,24.84
2018-10-06T10:56:49.957Z,24.89
2018-10-06T10:57:50.076Z,24.87
2018-10-06T10:58:50.007Z,24.87
2018-10-06T10:59:50.117Z,24.87
2018-10-06T11:00:50.062Z,24.89
2018-10-06T11:01:50.081Z,24.83
2018-10-06T11:02:50.114Z,24.80
2018-10-06T11:03:50.148Z,24.82
2018-10-06T11:04:50.234Z,24.86
2018-10-06T11:05:50.181Z,24.84
2018-10-06T11:06:50.209Z,24.84
2018-10-06T11:07:50.235Z,24.80
2018-10-06T11:08:50.256Z,24.84
2018-10-06T11:09:50.286Z,24.83
2018-10-06T11:10:50.307Z,24.83
2018-10-06T11:11:50.332Z,24.87
2018-10-06T11:12:50.358Z,24.84
2018-10-06T11:13:50.383Z,24.89
2018-10-06T11:14:50.408Z,24.84
2018-10-06T11:15:50.433Z,24.87
2018-10-06T11:16:50.457Z,24.89
2018-10-06T11:17:50.487Z,24.89
2018-10-06T11:18:50.506Z,24.92
2018-10-06T11:19:50.534Z,24.92
2018-10-06T11:20:50.557Z,24.93
2018-10-06T11:21:50.583Z,24.93
2018-10-06T11:22:50.608Z,24.94
2018-10-06T11:23:50.637Z,24.93
2018-10-06T11:24:50.681Z,24.98
2018-10-06T11:25:50.684Z,24.87
2018-10-06T11:26:50.711Z,24.90
2018-10-06T11:27:50.735Z,24.98
2018-10-06T11:28:50.768Z,24.97
2018-10-06T11:29:50.787Z,24.93
2018-10-06T11:30:50.809Z,24.98
2018-10-06T11:31:50.839Z,24.94
2018-10-06T11:32:50.858Z,24.89
2018-10-06T11:33:50.883Z,24.93
2018-10-06T11:34:50.911Z,24.98
2018-10-06T11:35:50.933Z,24.92
2018-10-06T11:36:50.960Z,24.94
2018-10-06T11:37:51.056Z,24.92
2018-10-06T11:38:51.008Z,24.93
2018-10-06T11:39:51.035Z,24.90
2018-10-06T11:40:51.059Z,24.98
2018-10-06T11:41:51.085Z,24.94
2018-10-06T11:42:51.108Z,24.97
2018-10-06T11:43:51.135Z,25.01
2018-10-06T11:44:51.162Z,24.92
2018-10-06T11:45:51.182Z,24.93
2018-10-06T11:46:51.211Z,24.97
2018-10-06T11:47:51.236Z,24.94
2018-10-06T11:48:51.264Z,24.97
2018-10-06T11:49:51.356Z,24.94
2018-10-06T11:50:51.310Z,24.94
2018-10-06T11:51:51.338Z,24.97
2018-10-06T11:52:51.360Z,24.97
2018-10-06T11:53:51.388Z,24.97
2018-10-06T11:54:51.415Z,24.94
2018-10-06T11:55:51.437Z,24.98
2018-10-06T11:56:51.462Z,24.94
2018-10-06T11:57:51.486Z,24.98
2018-10-06T11:58:51.511Z,24.93
2018-10-06T11:59:51.545Z,24.97
2018-10-06T12:00:51.563Z,24.98
2018-10-06T12:01:51.587Z,24.99
2018-10-06T12:02:51.615Z,24.99
2018-10-06T12:03:51.637Z,24.98
2018-10-06T12:04:51.663Z,24.99
2018-10-06T12:05:51.793Z,24.94
2018-10-06T12:06:51.716Z,24.99
2018-10-06T12:07:51.739Z,24.98
2018-10-06T12:08:51.766Z,24.97
2018-10-06T12:09:51.791Z,24.99
2018-10-06T12:10:51.814Z,24.97
2018-10-06T12:11:51.841Z,24.97
2018-10-06T12:12:51.862Z,24.98
2018-10-06T12:13:51.888Z,24.94
2018-10-06T12:14:51.963Z,24.94
2018-10-06T12:15:51.940Z,24.99
2018-10-06T12:16:51.964Z,24.97
2018-10-06T12:17:51.990Z,24.99
2018-10-06T12:18:52.017Z,25.01
2018-10-06T12:19:52.042Z,24.99
2018-10-06T12:20:52.065Z,24.99
2018-10-06T12:21:52.090Z,24.97
2018-10-06T12:22:52.116Z,25.04
2018-10-06T12:23:52.140Z,25.04
2018-10-06T12:24:52.166Z,25.02
2018-10-06T12:25:52.219Z,25.01
2018-10-06T12:26:52.216Z,25.07
2018-10-06T12:27:52.244Z,25.05
2018-10-06T12:28:52.269Z,25.07
2018-10-06T12:29:52.291Z,24.99
2018-10-06T12:30:52.320Z,25.01
2018-10-06T12:31:52.344Z,25.07
2018-10-06T12:32:52.368Z,25.01
2018-10-06T12:33:52.397Z,25.09
2018-10-06T12:34:52.496Z,25.05
2018-10-06T12:35:52.443Z,25.04
2018-10-06T12:36:52.467Z,25.02
2018-10-06T12:37:52.492Z,24.97
2018-10-06T12:38:52.521Z,24.94
2018-10-06T12:39:52.544Z,25.09
2018-10-06T12:40:52.568Z,24.99
2018-10-06T12:41:52.599Z,25.02
2018-10-06T12:42:52.617Z,25.01
2018-10-06T12:43:52.644Z,25.01
2018-10-06T12:44:52.668Z,25.08
2018-10-06T12:45:52.695Z,25.08
2018-10-06T12:46:52.721Z,25.04
2018-10-06T12:47:52.748Z,25.07
2018-10-06T12:48:52.770Z,25.01
2018-10-06T12:49:52.796Z,25.07
2018-10-06T12:50:52.822Z,25.05
2018-10-06T12:51:52.845Z,25.09
2018-10-06T12:52:52.875Z,25.07